sensor_id;sensor_type;location;lat;lon;timestamp;P1;durP1;ratioP1;P2;durP2;ratioP2
18302;SDS011;9277;37.980;23.748;2023-08-06T00:00:07;4.88;;;2.20;;
18302;SDS011;9277;37.980;23.748;2023-08-06T00:02:36;3.72;;;2.58;;
18302;SDS011;9277;37.980;23.748;2023-08-06T00:05:03;4.32;;;2.63;;
18302;SDS011;9277;37.980;23.748;2023-08-06T00:07:29;3.65;;;2.60;;
18302;SDS011;9277;37.980;23.748;2023-08-06T00:09:57;6.45;;;2.33;;
18302;SDS011;9277;37.980;23.748;2023-08-06T00:12:24;2.28;;;2.10;;
18302;SDS011;9277;37.980;23.748;2023-08-06T00:14:50;6.57;;;2.60;;
18302;SDS011;9277;37.980;23.748;2023-08-06T00:17:17;3.97;;;2.10;;
18302;SDS011;9277;37.980;23.748;2023-08-06T00:19:45;1.98;;;1.80;;
18302;SDS011;9277;37.980;23.748;2023-08-06T00:22:12;4.95;;;2.28;;
18302;SDS011;9277;37.980;23.748;2023-08-06T00:24:39;3.20;;;2.13;;
18302;SDS011;9277;37.980;23.748;2023-08-06T00:27:05;5.03;;;2.20;;
18302;SDS011;9277;37.980;23.748;2023-08-06T00:29:32;4.03;;;2.40;;
18302;SDS011;9277;37.980;23.748;2023-08-06T00:31:59;4.18;;;1.98;;
18302;SDS011;9277;37.980;23.748;2023-08-06T00:34:25;3.15;;;1.98;;
18302;SDS011;9277;37.980;23.748;2023-08-06T00:36:53;3.78;;;2.05;;
18302;SDS011;9277;37.980;23.748;2023-08-06T00:39:20;3.17;;;2.10;;
18302;SDS011;9277;37.980;23.748;2023-08-06T00:41:47;2.47;;;2.10;;
18302;SDS011;9277;37.980;23.748;2023-08-06T00:44:14;2.55;;;2.03;;
18302;SDS011;9277;37.980;23.748;2023-08-06T00:46:40;4.75;;;2.75;;
18302;SDS011;9277;37.980;23.748;2023-08-06T00:49:07;4.13;;;2.50;;
18302;SDS011;9277;37.980;23.748;2023-08-06T00:51:34;5.35;;;2.33;;
18302;SDS011;9277;37.980;23.748;2023-08-06T00:54:02;4.55;;;2.58;;
18302;SDS011;9277;37.980;23.748;2023-08-06T00:56:29;3.70;;;2.25;;
18302;SDS011;9277;37.980;23.748;2023-08-06T00:58:56;5.22;;;2.03;;
18302;SDS011;9277;37.980;23.748;2023-08-06T01:01:22;3.20;;;1.95;;
18302;SDS011;9277;37.980;23.748;2023-08-06T01:03:49;2.40;;;2.10;;
18302;SDS011;9277;37.980;23.748;2023-08-06T01:06:16;3.30;;;2.10;;
18302;SDS011;9277;37.980;23.748;2023-08-06T01:08:48;7.32;;;1.95;;
18302;SDS011;9277;37.980;23.748;2023-08-06T01:11:20;3.22;;;2.05;;
18302;SDS011;9277;37.980;23.748;2023-08-06T01:13:50;2.65;;;1.77;;
18302;SDS011;9277;37.980;23.748;2023-08-06T01:16:18;5.80;;;2.17;;
18302;SDS011;9277;37.980;23.748;2023-08-06T01:18:46;4.00;;;2.45;;
18302;SDS011;9277;37.980;23.748;2023-08-06T01:21:16;4.90;;;2.28;;
18302;SDS011;9277;37.980;23.748;2023-08-06T01:23:42;2.67;;;2.05;;
18302;SDS011;9277;37.980;23.748;2023-08-06T01:26:11;6.75;;;2.13;;
18302;SDS011;9277;37.980;23.748;2023-08-06T01:28:43;3.13;;;2.08;;
18302;SDS011;9277;37.980;23.748;2023-08-06T01:31:13;2.53;;;2.35;;
18302;SDS011;9277;37.980;23.748;2023-08-06T01:33:43;3.05;;;2.13;;
18302;SDS011;9277;37.980;23.748;2023-08-06T01:36:10;7.57;;;2.20;;
18302;SDS011;9277;37.980;23.748;2023-08-06T01:38:39;6.75;;;2.17;;
18302;SDS011;9277;37.980;23.748;2023-08-06T01:41:05;4.18;;;2.35;;
18302;SDS011;9277;37.980;23.748;2023-08-06T01:43:32;4.82;;;2.53;;
18302;SDS011;9277;37.980;23.748;2023-08-06T01:45:59;3.08;;;2.00;;
18302;SDS011;9277;37.980;23.748;2023-08-06T01:48:26;3.45;;;2.08;;
18302;SDS011;9277;37.980;23.748;2023-08-06T01:50:52;5.82;;;2.13;;
18302;SDS011;9277;37.980;23.748;2023-08-06T01:53:19;5.38;;;2.75;;
18302;SDS011;9277;37.980;23.748;2023-08-06T01:55:49;4.70;;;2.10;;
18302;SDS011;9277;37.980;23.748;2023-08-06T01:58:15;5.60;;;2.08;;
18302;SDS011;9277;37.980;23.748;2023-08-06T02:00:42;2.00;;;1.88;;
18302;SDS011;9277;37.980;23.748;2023-08-06T02:03:09;3.30;;;2.25;;
18302;SDS011;9277;37.980;23.748;2023-08-06T02:05:35;3.05;;;1.73;;
18302;SDS011;9277;37.980;23.748;2023-08-06T02:08:02;4.85;;;1.85;;
18302;SDS011;9277;37.980;23.748;2023-08-06T02:10:29;2.90;;;1.92;;
18302;SDS011;9277;37.980;23.748;2023-08-06T02:12:57;3.00;;;1.63;;
18302;SDS011;9277;37.980;23.748;2023-08-06T02:15:24;4.88;;;2.05;;
18302;SDS011;9277;37.980;23.748;2023-08-06T02:17:50;3.80;;;1.83;;
18302;SDS011;9277;37.980;23.748;2023-08-06T02:20:17;6.05;;;2.08;;
18302;SDS011;9277;37.980;23.748;2023-08-06T02:22:44;2.95;;;1.92;;
18302;SDS011;9277;37.980;23.748;2023-08-06T02:25:11;7.05;;;2.58;;
18302;SDS011;9277;37.980;23.748;2023-08-06T02:27:37;2.97;;;2.42;;
18302;SDS011;9277;37.980;23.748;2023-08-06T02:30:06;6.20;;;2.72;;
18302;SDS011;9277;37.980;23.748;2023-08-06T02:32:33;6.28;;;1.95;;
18302;SDS011;9277;37.980;23.748;2023-08-06T02:35:01;5.28;;;2.20;;
18302;SDS011;9277;37.980;23.748;2023-08-06T02:37:27;4.55;;;2.03;;
18302;SDS011;9277;37.980;23.748;2023-08-06T02:39:54;6.65;;;2.05;;
18302;SDS011;9277;37.980;23.748;2023-08-06T02:42:21;3.78;;;1.75;;
18302;SDS011;9277;37.980;23.748;2023-08-06T02:44:48;4.07;;;1.88;;
18302;SDS011;9277;37.980;23.748;2023-08-06T02:47:16;3.78;;;2.00;;
18302;SDS011;9277;37.980;23.748;2023-08-06T02:49:43;6.55;;;1.85;;
18302;SDS011;9277;37.980;23.748;2023-08-06T02:52:10;2.35;;;1.77;;
18302;SDS011;9277;37.980;23.748;2023-08-06T02:54:36;4.18;;;1.92;;
18302;SDS011;9277;37.980;23.748;2023-08-06T02:57:03;3.05;;;1.77;;
18302;SDS011;9277;37.980;23.748;2023-08-06T02:59:30;3.03;;;1.83;;
18302;SDS011;9277;37.980;23.748;2023-08-06T03:01:57;7.63;;;2.10;;
18302;SDS011;9277;37.980;23.748;2023-08-06T03:04:26;2.78;;;1.80;;
18302;SDS011;9277;37.980;23.748;2023-08-06T03:06:52;4.40;;;2.17;;
18302;SDS011;9277;37.980;23.748;2023-08-06T03:09:19;2.35;;;1.85;;
18302;SDS011;9277;37.980;23.748;2023-08-06T03:11:46;5.22;;;1.80;;
18302;SDS011;9277;37.980;23.748;2023-08-06T03:14:12;4.95;;;1.65;;
18302;SDS011;9277;37.980;23.748;2023-08-06T03:16:39;1.80;;;1.70;;
18302;SDS011;9277;37.980;23.748;2023-08-06T03:19:06;4.03;;;2.00;;
18302;SDS011;9277;37.980;23.748;2023-08-06T03:21:34;2.78;;;1.58;;
18302;SDS011;9277;37.980;23.748;2023-08-06T03:24:01;2.00;;;1.80;;
18302;SDS011;9277;37.980;23.748;2023-08-06T03:26:27;4.72;;;1.80;;
18302;SDS011;9277;37.980;23.748;2023-08-06T03:28:54;1.73;;;1.55;;
18302;SDS011;9277;37.980;23.748;2023-08-06T03:31:21;2.38;;;1.83;;
18302;SDS011;9277;37.980;23.748;2023-08-06T03:33:48;2.03;;;1.90;;
18302;SDS011;9277;37.980;23.748;2023-08-06T03:36:14;6.40;;;2.30;;
18302;SDS011;9277;37.980;23.748;2023-08-06T03:38:42;2.22;;;1.40;;
18302;SDS011;9277;37.980;23.748;2023-08-06T03:41:09;4.05;;;1.67;;
18302;SDS011;9277;37.980;23.748;2023-08-06T03:43:36;4.03;;;1.67;;
18302;SDS011;9277;37.980;23.748;2023-08-06T03:46:03;4.40;;;1.73;;
18302;SDS011;9277;37.980;23.748;2023-08-06T03:48:29;3.25;;;1.70;;
18302;SDS011;9277;37.980;23.748;2023-08-06T03:50:56;7.13;;;1.85;;
18302;SDS011;9277;37.980;23.748;2023-08-06T03:53:26;2.67;;;1.60;;
18302;SDS011;9277;37.980;23.748;2023-08-06T03:55:54;4.35;;;1.75;;
18302;SDS011;9277;37.980;23.748;2023-08-06T03:58:25;3.85;;;1.73;;
18302;SDS011;9277;37.980;23.748;2023-08-06T04:00:57;4.43;;;2.00;;
18302;SDS011;9277;37.980;23.748;2023-08-06T04:03:23;4.43;;;2.22;;
18302;SDS011;9277;37.980;23.748;2023-08-06T04:05:50;1.90;;;1.75;;
18302;SDS011;9277;37.980;23.748;2023-08-06T04:08:17;2.80;;;1.50;;
18302;SDS011;9277;37.980;23.748;2023-08-06T04:10:43;3.55;;;1.90;;
18302;SDS011;9277;37.980;23.748;2023-08-06T04:13:12;4.93;;;2.25;;
18302;SDS011;9277;37.980;23.748;2023-08-06T04:15:38;3.45;;;1.70;;
18302;SDS011;9277;37.980;23.748;2023-08-06T04:18:05;6.47;;;1.80;;
18302;SDS011;9277;37.980;23.748;2023-08-06T04:20:32;3.90;;;1.80;;
18302;SDS011;9277;37.980;23.748;2023-08-06T04:22:59;5.68;;;1.90;;
18302;SDS011;9277;37.980;23.748;2023-08-06T04:25:25;5.75;;;1.80;;
18302;SDS011;9277;37.980;23.748;2023-08-06T04:27:52;3.75;;;1.85;;
18302;SDS011;9277;37.980;23.748;2023-08-06T04:30:20;3.58;;;2.03;;
18302;SDS011;9277;37.980;23.748;2023-08-06T04:32:49;4.45;;;1.63;;
18302;SDS011;9277;37.980;23.748;2023-08-06T04:35:15;1.88;;;1.70;;
18302;SDS011;9277;37.980;23.748;2023-08-06T04:37:42;4.00;;;1.60;;
18302;SDS011;9277;37.980;23.748;2023-08-06T04:40:09;3.40;;;2.00;;
18302;SDS011;9277;37.980;23.748;2023-08-06T04:42:36;2.33;;;1.40;;
18302;SDS011;9277;37.980;23.748;2023-08-06T04:45:03;2.28;;;1.50;;
18302;SDS011;9277;37.980;23.748;2023-08-06T04:47:31;1.80;;;1.60;;
18302;SDS011;9277;37.980;23.748;2023-08-06T04:49:58;2.38;;;1.55;;
18302;SDS011;9277;37.980;23.748;2023-08-06T04:52:25;2.95;;;1.80;;
18302;SDS011;9277;37.980;23.748;2023-08-06T04:54:53;2.35;;;1.70;;
18302;SDS011;9277;37.980;23.748;2023-08-06T04:57:20;4.05;;;1.83;;
18302;SDS011;9277;37.980;23.748;2023-08-06T04:59:46;2.38;;;1.42;;
18302;SDS011;9277;37.980;23.748;2023-08-06T05:02:14;5.18;;;1.65;;
18302;SDS011;9277;37.980;23.748;2023-08-06T05:04:42;1.67;;;1.50;;
18302;SDS011;9277;37.980;23.748;2023-08-06T05:07:10;2.88;;;1.80;;
18302;SDS011;9277;37.980;23.748;2023-08-06T05:09:37;4.93;;;1.67;;
18302;SDS011;9277;37.980;23.748;2023-08-06T05:12:04;3.05;;;1.65;;
18302;SDS011;9277;37.980;23.748;2023-08-06T05:14:31;3.33;;;1.55;;
18302;SDS011;9277;37.980;23.748;2023-08-06T05:16:57;2.08;;;1.63;;
18302;SDS011;9277;37.980;23.748;2023-08-06T05:19:24;5.10;;;2.00;;
18302;SDS011;9277;37.980;23.748;2023-08-06T05:21:52;4.10;;;2.10;;
18302;SDS011;9277;37.980;23.748;2023-08-06T05:24:19;2.55;;;1.77;;
18302;SDS011;9277;37.980;23.748;2023-08-06T05:26:45;2.38;;;1.58;;
18302;SDS011;9277;37.980;23.748;2023-08-06T05:29:13;3.83;;;1.77;;
18302;SDS011;9277;37.980;23.748;2023-08-06T05:31:39;1.60;;;1.50;;
18302;SDS011;9277;37.980;23.748;2023-08-06T05:34:06;4.93;;;1.50;;
18302;SDS011;9277;37.980;23.748;2023-08-06T05:36:33;10.93;;;1.98;;
18302;SDS011;9277;37.980;23.748;2023-08-06T05:39:01;1.63;;;1.42;;
18302;SDS011;9277;37.980;23.748;2023-08-06T05:41:28;10.65;;;1.88;;
18302;SDS011;9277;37.980;23.748;2023-08-06T05:43:55;2.40;;;1.55;;
18302;SDS011;9277;37.980;23.748;2023-08-06T05:46:25;4.28;;;1.65;;
18302;SDS011;9277;37.980;23.748;2023-08-06T05:48:52;6.28;;;1.83;;
18302;SDS011;9277;37.980;23.748;2023-08-06T05:51:18;1.77;;;1.67;;
18302;SDS011;9277;37.980;23.748;2023-08-06T05:53:45;2.00;;;1.58;;
18302;SDS011;9277;37.980;23.748;2023-08-06T05:56:15;1.65;;;1.30;;
18302;SDS011;9277;37.980;23.748;2023-08-06T05:58:42;1.80;;;1.70;;
18302;SDS011;9277;37.980;23.748;2023-08-06T06:01:09;3.60;;;1.83;;
18302;SDS011;9277;37.980;23.748;2023-08-06T06:03:36;2.95;;;1.45;;
18302;SDS011;9277;37.980;23.748;2023-08-06T06:06:02;1.98;;;1.30;;
18302;SDS011;9277;37.980;23.748;2023-08-06T06:08:29;1.90;;;1.48;;
18302;SDS011;9277;37.980;23.748;2023-08-06T06:10:56;2.85;;;1.60;;
18302;SDS011;9277;37.980;23.748;2023-08-06T06:13:24;1.77;;;1.50;;
18302;SDS011;9277;37.980;23.748;2023-08-06T06:15:53;3.17;;;1.63;;
18302;SDS011;9277;37.980;23.748;2023-08-06T06:18:20;3.13;;;1.77;;
18302;SDS011;9277;37.980;23.748;2023-08-06T06:20:47;3.95;;;1.70;;
18302;SDS011;9277;37.980;23.748;2023-08-06T06:23:13;2.97;;;1.52;;
18302;SDS011;9277;37.980;23.748;2023-08-06T06:25:41;2.40;;;1.55;;
18302;SDS011;9277;37.980;23.748;2023-08-06T06:28:08;3.60;;;1.42;;
18302;SDS011;9277;37.980;23.748;2023-08-06T06:30:36;1.60;;;1.50;;
18302;SDS011;9277;37.980;23.748;2023-08-06T06:33:03;4.35;;;1.65;;
18302;SDS011;9277;37.980;23.748;2023-08-06T06:35:30;2.22;;;1.67;;
18302;SDS011;9277;37.980;23.748;2023-08-06T06:37:57;4.10;;;1.50;;
18302;SDS011;9277;37.980;23.748;2023-08-06T06:40:24;1.58;;;1.45;;
18302;SDS011;9277;37.980;23.748;2023-08-06T06:42:50;3.03;;;1.55;;
18302;SDS011;9277;37.980;23.748;2023-08-06T06:45:17;1.85;;;1.63;;
18302;SDS011;9277;37.980;23.748;2023-08-06T06:47:45;1.67;;;1.58;;
18302;SDS011;9277;37.980;23.748;2023-08-06T06:50:12;3.15;;;1.55;;
18302;SDS011;9277;37.980;23.748;2023-08-06T06:52:39;1.55;;;1.25;;
18302;SDS011;9277;37.980;23.748;2023-08-06T06:55:06;2.08;;;1.25;;
18302;SDS011;9277;37.980;23.748;2023-08-06T06:57:32;3.13;;;1.50;;
18302;SDS011;9277;37.980;23.748;2023-08-06T07:00:00;1.63;;;1.40;;
18302;SDS011;9277;37.980;23.748;2023-08-06T07:02:27;1.70;;;1.58;;
18302;SDS011;9277;37.980;23.748;2023-08-06T07:04:55;4.70;;;1.23;;
18302;SDS011;9277;37.980;23.748;2023-08-06T07:07:22;2.72;;;1.40;;
18302;SDS011;9277;37.980;23.748;2023-08-06T07:09:49;3.25;;;1.48;;
18302;SDS011;9277;37.980;23.748;2023-08-06T07:12:15;2.03;;;1.55;;
18302;SDS011;9277;37.980;23.748;2023-08-06T07:14:42;1.33;;;1.23;;
18302;SDS011;9277;37.980;23.748;2023-08-06T07:17:09;2.45;;;1.30;;
18302;SDS011;9277;37.980;23.748;2023-08-06T07:19:36;3.45;;;1.77;;
18302;SDS011;9277;37.980;23.748;2023-08-06T07:22:04;1.50;;;1.40;;
18302;SDS011;9277;37.980;23.748;2023-08-06T07:24:31;3.40;;;1.40;;
18302;SDS011;9277;37.980;23.748;2023-08-06T07:26:58;1.48;;;1.25;;
18302;SDS011;9277;37.980;23.748;2023-08-06T07:29:24;2.28;;;1.85;;
18302;SDS011;9277;37.980;23.748;2023-08-06T07:31:51;1.60;;;1.20;;
18302;SDS011;9277;37.980;23.748;2023-08-06T07:34:18;3.33;;;1.30;;
18302;SDS011;9277;37.980;23.748;2023-08-06T07:36:45;3.15;;;1.60;;
18302;SDS011;9277;37.980;23.748;2023-08-06T07:39:13;0.98;;;0.98;;
18302;SDS011;9277;37.980;23.748;2023-08-06T07:41:41;7.35;;;1.50;;
18302;SDS011;9277;37.980;23.748;2023-08-06T07:44:08;6.18;;;1.60;;
18302;SDS011;9277;37.980;23.748;2023-08-06T07:46:35;2.67;;;1.65;;
18302;SDS011;9277;37.980;23.748;2023-08-06T07:49:06;2.67;;;1.42;;
18302;SDS011;9277;37.980;23.748;2023-08-06T07:51:32;1.80;;;1.17;;
18302;SDS011;9277;37.980;23.748;2023-08-06T07:53:59;2.40;;;1.17;;
18302;SDS011;9277;37.980;23.748;2023-08-06T07:56:28;1.50;;;1.40;;
18302;SDS011;9277;37.980;23.748;2023-08-06T07:58:55;1.45;;;1.30;;
18302;SDS011;9277;37.980;23.748;2023-08-06T08:01:22;2.22;;;1.33;;
18302;SDS011;9277;37.980;23.748;2023-08-06T08:03:49;2.95;;;1.58;;
18302;SDS011;9277;37.980;23.748;2023-08-06T08:06:20;4.28;;;1.90;;
18302;SDS011;9277;37.980;23.748;2023-08-06T08:08:48;5.38;;;2.13;;
18302;SDS011;9277;37.980;23.748;2023-08-06T08:11:15;8.98;;;2.10;;
18302;SDS011;9277;37.980;23.748;2023-08-06T08:13:44;4.22;;;1.40;;
18302;SDS011;9277;37.980;23.748;2023-08-06T08:16:11;1.55;;;1.40;;
18302;SDS011;9277;37.980;23.748;2023-08-06T08:18:37;4.85;;;1.70;;
18302;SDS011;9277;37.980;23.748;2023-08-06T08:21:04;3.25;;;1.70;;
18302;SDS011;9277;37.980;23.748;2023-08-06T08:23:31;3.65;;;1.67;;
18302;SDS011;9277;37.980;23.748;2023-08-06T08:25:58;3.67;;;1.30;;
18302;SDS011;9277;37.980;23.748;2023-08-06T08:28:30;7.60;;;1.80;;
18302;SDS011;9277;37.980;23.748;2023-08-06T08:31:00;2.65;;;1.80;;
18302;SDS011;9277;37.980;23.748;2023-08-06T08:33:27;5.70;;;1.70;;
18302;SDS011;9277;37.980;23.748;2023-08-06T08:35:54;6.05;;;2.45;;
18302;SDS011;9277;37.980;23.748;2023-08-06T08:38:21;1.80;;;1.65;;
18302;SDS011;9277;37.980;23.748;2023-08-06T08:40:47;5.35;;;2.08;;
18302;SDS011;9277;37.980;23.748;2023-08-06T08:43:18;4.13;;;2.00;;
18302;SDS011;9277;37.980;23.748;2023-08-06T08:45:48;2.78;;;1.65;;
18302;SDS011;9277;37.980;23.748;2023-08-06T08:48:18;3.90;;;2.08;;
18302;SDS011;9277;37.980;23.748;2023-08-06T08:50:45;4.03;;;1.92;;
18302;SDS011;9277;37.980;23.748;2023-08-06T08:53:13;2.92;;;2.42;;
18302;SDS011;9277;37.980;23.748;2023-08-06T08:55:40;3.17;;;1.55;;
18302;SDS011;9277;37.980;23.748;2023-08-06T08:58:07;1.73;;;1.30;;
18302;SDS011;9277;37.980;23.748;2023-08-06T09:00:34;1.50;;;1.40;;
18302;SDS011;9277;37.980;23.748;2023-08-06T09:03:01;2.85;;;1.73;;
18302;SDS011;9277;37.980;23.748;2023-08-06T09:05:30;3.15;;;1.50;;
18302;SDS011;9277;37.980;23.748;2023-08-06T09:07:58;5.35;;;1.40;;
18302;SDS011;9277;37.980;23.748;2023-08-06T09:10:28;1.70;;;1.60;;
18302;SDS011;9277;37.980;23.748;2023-08-06T09:12:55;1.65;;;1.55;;
18302;SDS011;9277;37.980;23.748;2023-08-06T09:15:23;6.85;;;1.50;;
18302;SDS011;9277;37.980;23.748;2023-08-06T09:17:51;2.70;;;1.17;;
18302;SDS011;9277;37.980;23.748;2023-08-06T09:20:18;1.48;;;1.38;;
18302;SDS011;9277;37.980;23.748;2023-08-06T09:22:46;2.92;;;1.45;;
18302;SDS011;9277;37.980;23.748;2023-08-06T09:25:15;3.47;;;1.50;;
18302;SDS011;9277;37.980;23.748;2023-08-06T09:27:48;5.95;;;1.70;;
18302;SDS011;9277;37.980;23.748;2023-08-06T09:30:28;1.40;;;1.30;;
18302;SDS011;9277;37.980;23.748;2023-08-06T09:32:55;2.83;;;1.30;;
18302;SDS011;9277;37.980;23.748;2023-08-06T09:35:21;2.28;;;1.52;;
18302;SDS011;9277;37.980;23.748;2023-08-06T09:37:50;1.35;;;1.27;;
18302;SDS011;9277;37.980;23.748;2023-08-06T09:40:26;2.75;;;1.60;;
18302;SDS011;9277;37.980;23.748;2023-08-06T09:42:53;1.80;;;1.60;;
18302;SDS011;9277;37.980;23.748;2023-08-06T09:45:19;2.38;;;1.50;;
18302;SDS011;9277;37.980;23.748;2023-08-06T09:47:47;1.98;;;1.50;;
18302;SDS011;9277;37.980;23.748;2023-08-06T09:50:15;3.20;;;1.40;;
18302;SDS011;9277;37.980;23.748;2023-08-06T09:52:42;3.78;;;1.73;;
18302;SDS011;9277;37.980;23.748;2023-08-06T09:55:11;1.00;;;1.00;;
18302;SDS011;9277;37.980;23.748;2023-08-06T09:57:38;1.30;;;1.20;;
18302;SDS011;9277;37.980;23.748;2023-08-06T10:00:06;7.38;;;2.03;;
18302;SDS011;9277;37.980;23.748;2023-08-06T10:02:33;4.07;;;1.77;;
18302;SDS011;9277;37.980;23.748;2023-08-06T10:05:00;6.15;;;1.92;;
18302;SDS011;9277;37.980;23.748;2023-08-06T10:07:28;7.50;;;1.73;;
18302;SDS011;9277;37.980;23.748;2023-08-06T10:09:56;3.00;;;2.05;;
18302;SDS011;9277;37.980;23.748;2023-08-06T10:12:24;5.97;;;2.28;;
18302;SDS011;9277;37.980;23.748;2023-08-06T10:14:51;3.70;;;1.30;;
18302;SDS011;9277;37.980;23.748;2023-08-06T10:17:19;4.22;;;1.90;;
18302;SDS011;9277;37.980;23.748;2023-08-06T10:19:46;2.95;;;1.48;;
18302;SDS011;9277;37.980;23.748;2023-08-06T10:22:14;2.17;;;1.50;;
18302;SDS011;9277;37.980;23.748;2023-08-06T10:24:46;2.92;;;1.60;;
18302;SDS011;9277;37.980;23.748;2023-08-06T10:27:13;4.30;;;1.67;;
18302;SDS011;9277;37.980;23.748;2023-08-06T10:29:41;3.58;;;1.27;;
18302;SDS011;9277;37.980;23.748;2023-08-06T10:32:07;4.90;;;1.70;;
18302;SDS011;9277;37.980;23.748;2023-08-06T10:37:19;2.15;;;1.27;;
18302;SDS011;9277;37.980;23.748;2023-08-06T10:39:48;2.47;;;0.93;;
18302;SDS011;9277;37.980;23.748;2023-08-06T10:42:19;3.10;;;1.40;;
18302;SDS011;9277;37.980;23.748;2023-08-06T10:47:29;5.75;;;1.42;;
18302;SDS011;9277;37.980;23.748;2023-08-06T10:49:56;3.05;;;1.40;;
18302;SDS011;9277;37.980;23.748;2023-08-06T10:52:23;3.80;;;1.67;;
18302;SDS011;9277;37.980;23.748;2023-08-06T10:54:50;2.25;;;1.27;;
18302;SDS011;9277;37.980;23.748;2023-08-06T10:57:17;2.65;;;1.00;;
18302;SDS011;9277;37.980;23.748;2023-08-06T10:59:43;4.38;;;1.30;;
18302;SDS011;9277;37.980;23.748;2023-08-06T11:02:10;4.95;;;1.13;;
18302;SDS011;9277;37.980;23.748;2023-08-06T11:04:39;1.38;;;1.05;;
18302;SDS011;9277;37.980;23.748;2023-08-06T11:07:06;2.20;;;1.13;;
18302;SDS011;9277;37.980;23.748;2023-08-06T11:09:33;2.85;;;1.30;;
18302;SDS011;9277;37.980;23.748;2023-08-06T11:12:00;3.70;;;1.55;;
18302;SDS011;9277;37.980;23.748;2023-08-06T11:14:26;1.40;;;1.30;;
18302;SDS011;9277;37.980;23.748;2023-08-06T11:16:53;6.07;;;1.50;;
18302;SDS011;9277;37.980;23.748;2023-08-06T11:19:20;3.47;;;1.20;;
18302;SDS011;9277;37.980;23.748;2023-08-06T11:21:51;1.50;;;1.40;;
18302;SDS011;9277;37.980;23.748;2023-08-06T11:24:18;2.67;;;1.30;;
18302;SDS011;9277;37.980;23.748;2023-08-06T11:26:44;2.80;;;1.52;;
18302;SDS011;9277;37.980;23.748;2023-08-06T11:29:11;3.67;;;1.60;;
18302;SDS011;9277;37.980;23.748;2023-08-06T11:31:38;11.80;;;1.92;;
18302;SDS011;9277;37.980;23.748;2023-08-06T11:34:05;2.33;;;1.33;;
18302;SDS011;9277;37.980;23.748;2023-08-06T11:36:32;3.80;;;1.45;;
18302;SDS011;9277;37.980;23.748;2023-08-06T11:39:00;2.35;;;1.40;;
18302;SDS011;9277;37.980;23.748;2023-08-06T11:41:27;2.83;;;1.50;;
18302;SDS011;9277;37.980;23.748;2023-08-06T11:43:55;2.92;;;1.70;;
18302;SDS011;9277;37.980;23.748;2023-08-06T11:46:22;1.90;;;1.42;;
18302;SDS011;9277;37.980;23.748;2023-08-06T11:48:50;2.67;;;1.52;;
18302;SDS011;9277;37.980;23.748;2023-08-06T11:51:17;2.20;;;1.52;;
18302;SDS011;9277;37.980;23.748;2023-08-06T11:53:48;3.03;;;1.30;;
18302;SDS011;9277;37.980;23.748;2023-08-06T11:56:16;1.50;;;1.25;;
18302;SDS011;9277;37.980;23.748;2023-08-06T11:58:42;2.83;;;1.38;;
18302;SDS011;9277;37.980;23.748;2023-08-06T12:01:09;2.83;;;1.42;;
18302;SDS011;9277;37.980;23.748;2023-08-06T12:03:38;3.17;;;1.40;;
18302;SDS011;9277;37.980;23.748;2023-08-06T12:06:05;1.13;;;1.13;;
18302;SDS011;9277;37.980;23.748;2023-08-06T12:08:32;2.97;;;1.33;;
18302;SDS011;9277;37.980;23.748;2023-08-06T12:10:59;3.08;;;1.02;;
18302;SDS011;9277;37.980;23.748;2023-08-06T12:13:27;3.10;;;1.58;;
18302;SDS011;9277;37.980;23.748;2023-08-06T12:15:54;1.75;;;1.10;;
18302;SDS011;9277;37.980;23.748;2023-08-06T12:18:22;1.23;;;1.13;;
18302;SDS011;9277;37.980;23.748;2023-08-06T12:20:49;5.63;;;1.13;;
18302;SDS011;9277;37.980;23.748;2023-08-06T12:23:16;2.92;;;1.10;;
18302;SDS011;9277;37.980;23.748;2023-08-06T12:25:42;3.47;;;1.27;;
18302;SDS011;9277;37.980;23.748;2023-08-06T12:28:09;1.30;;;1.20;;
18302;SDS011;9277;37.980;23.748;2023-08-06T12:30:39;1.63;;;1.10;;
18302;SDS011;9277;37.980;23.748;2023-08-06T12:33:09;1.45;;;1.35;;
18302;SDS011;9277;37.980;23.748;2023-08-06T12:35:36;1.42;;;1.27;;
18302;SDS011;9277;37.980;23.748;2023-08-06T12:38:03;3.60;;;1.27;;
18302;SDS011;9277;37.980;23.748;2023-08-06T12:40:30;1.95;;;1.20;;
18302;SDS011;9277;37.980;23.748;2023-08-06T12:42:57;1.98;;;1.30;;
18302;SDS011;9277;37.980;23.748;2023-08-06T12:45:24;1.17;;;1.17;;
18302;SDS011;9277;37.980;23.748;2023-08-06T12:47:53;5.25;;;1.23;;
18302;SDS011;9277;37.980;23.748;2023-08-06T12:50:19;1.83;;;1.05;;
18302;SDS011;9277;37.980;23.748;2023-08-06T12:52:46;1.10;;;1.00;;
18302;SDS011;9277;37.980;23.748;2023-08-06T12:55:13;1.92;;;1.42;;
18302;SDS011;9277;37.980;23.748;2023-08-06T12:57:39;4.88;;;1.40;;
18302;SDS011;9277;37.980;23.748;2023-08-06T13:00:07;6.35;;;1.48;;
18302;SDS011;9277;37.980;23.748;2023-08-06T13:02:34;1.58;;;1.30;;
18302;SDS011;9277;37.980;23.748;2023-08-06T13:05:02;4.28;;;1.30;;
18302;SDS011;9277;37.980;23.748;2023-08-06T13:07:31;2.22;;;1.10;;
18302;SDS011;9277;37.980;23.748;2023-08-06T13:09:58;4.05;;;1.40;;
18302;SDS011;9277;37.980;23.748;2023-08-06T13:12:25;1.90;;;1.00;;
18302;SDS011;9277;37.980;23.748;2023-08-06T13:14:52;1.63;;;1.05;;
18302;SDS011;9277;37.980;23.748;2023-08-06T13:17:22;1.40;;;1.30;;
18302;SDS011;9277;37.980;23.748;2023-08-06T13:19:49;2.35;;;1.23;;
18302;SDS011;9277;37.980;23.748;2023-08-06T13:22:17;1.50;;;1.23;;
18302;SDS011;9277;37.980;23.748;2023-08-06T13:24:44;6.40;;;1.10;;
18302;SDS011;9277;37.980;23.748;2023-08-06T13:27:10;5.90;;;1.13;;
18302;SDS011;9277;37.980;23.748;2023-08-06T13:29:37;3.80;;;1.17;;
18302;SDS011;9277;37.980;23.748;2023-08-06T13:32:04;1.83;;;1.70;;
18302;SDS011;9277;37.980;23.748;2023-08-06T13:34:31;3.95;;;1.63;;
18302;SDS011;9277;37.980;23.748;2023-08-06T13:36:58;2.53;;;1.17;;
18302;SDS011;9277;37.980;23.748;2023-08-06T13:39:26;1.80;;;1.05;;
18302;SDS011;9277;37.980;23.748;2023-08-06T13:41:52;1.77;;;1.15;;
18302;SDS011;9277;37.980;23.748;2023-08-06T13:44:19;2.15;;;1.10;;
18302;SDS011;9277;37.980;23.748;2023-08-06T13:46:46;1.23;;;1.13;;
18302;SDS011;9277;37.980;23.748;2023-08-06T13:49:13;1.77;;;1.35;;
18302;SDS011;9277;37.980;23.748;2023-08-06T13:51:39;1.85;;;1.23;;
18302;SDS011;9277;37.980;23.748;2023-08-06T13:54:06;1.20;;;1.10;;
18302;SDS011;9277;37.980;23.748;2023-08-06T13:56:34;1.65;;;1.55;;
18302;SDS011;9277;37.980;23.748;2023-08-06T13:59:03;3.17;;;1.30;;
18302;SDS011;9277;37.980;23.748;2023-08-06T14:01:29;3.80;;;1.30;;
18302;SDS011;9277;37.980;23.748;2023-08-06T14:03:56;3.63;;;1.13;;
18302;SDS011;9277;37.980;23.748;2023-08-06T14:06:23;3.42;;;1.67;;
18302;SDS011;9277;37.980;23.748;2023-08-06T14:08:50;3.33;;;1.35;;
18302;SDS011;9277;37.980;23.748;2023-08-06T14:11:16;2.45;;;0.95;;
18302;SDS011;9277;37.980;23.748;2023-08-06T14:13:45;3.63;;;1.25;;
18302;SDS011;9277;37.980;23.748;2023-08-06T14:16:11;2.10;;;1.30;;
18302;SDS011;9277;37.980;23.748;2023-08-06T14:18:38;0.90;;;0.90;;
18302;SDS011;9277;37.980;23.748;2023-08-06T14:21:06;2.15;;;1.13;;
18302;SDS011;9277;37.980;23.748;2023-08-06T14:23:33;3.20;;;0.93;;
18302;SDS011;9277;37.980;23.748;2023-08-06T14:26:00;1.75;;;1.20;;
18302;SDS011;9277;37.980;23.748;2023-08-06T14:28:26;4.57;;;1.08;;
18302;SDS011;9277;37.980;23.748;2023-08-06T14:30:55;0.75;;;0.75;;
18302;SDS011;9277;37.980;23.748;2023-08-06T14:33:21;4.05;;;0.88;;
18302;SDS011;9277;37.980;23.748;2023-08-06T14:35:48;1.25;;;1.10;;
18302;SDS011;9277;37.980;23.748;2023-08-06T14:38:15;5.32;;;1.30;;
18302;SDS011;9277;37.980;23.748;2023-08-06T14:40:43;2.88;;;1.00;;
18302;SDS011;9277;37.980;23.748;2023-08-06T14:43:09;0.80;;;0.77;;
18302;SDS011;9277;37.980;23.748;2023-08-06T14:45:37;0.95;;;0.95;;
18302;SDS011;9277;37.980;23.748;2023-08-06T14:48:05;1.40;;;1.08;;
18302;SDS011;9277;37.980;23.748;2023-08-06T14:50:32;1.70;;;1.05;;
18302;SDS011;9277;37.980;23.748;2023-08-06T14:52:59;3.72;;;1.10;;